Time;durP1;ratioP1;P1;durP2;ratioP2;P2;SDS_P1;SDS_P2;PMS_P1;PMS_P2;Temp;Humidity;BMP_temperature;BMP_pressure;BME280_temperature;BME280_humidity;BME280_pressure;Samples;Min_cycle;Max_cycle;Signal;HPM_P1;HPM_P2
2022/10/30 00:01:57;;;;;;;;;;;;;;;12.23;100.00;101187.34;5550563;32;34459;-71
2022/10/30 00:05:00;;;;;;;;;;;;;;;12.29;100.00;101186.72;5536878;32;35848;-70
2022/10/30 00:08:06;;;;;;;;;;;;;;;12.34;100.00;101187.91;5550524;32;34448;-71
2022/10/30 00:11:12;;;;;;;;;;;;;;;12.30;100.00;101178.53;5536633;32;34708;-70
2022/10/30 00:14:18;;;;;;;;;;;;;;;12.31;100.00;101182.87;5550370;32;34403;-71
2022/10/30 00:17:25;;;;;;;;;;;;;;;12.26;100.00;101185.19;5550429;32;35037;-71
2022/10/30 00:20:35;;;;;;;;;;;;;;;12.20;100.00;101181.31;5550007;32;34298;-71
2022/10/30 00:23:47;;;;;;;;;;;;;;;12.15;100.00;101174.84;5536568;32;35228;-71
2022/10/30 00:26:51;;;;;;;;;;;;;;;12.17;100.00;101175.50;5536786;32;35021;-70
2022/10/30 00:29:59;;;;;;;;;;;;;;;12.18;100.00;101170.03;5537290;32;34785;-71
2022/10/30 00:33:02;;;;;;;;;;;;;;;12.18;100.00;101179.84;5536496;32;34454;-71
2022/10/30 00:36:07;;;;;;;;;;;;;;;12.18;100.00;101177.16;5550077;32;34339;-71
2022/10/30 00:39:14;;;;;;;;;;;;;;;12.18;100.00;101172.69;5553707;32;34735;-70
2022/10/30 00:42:28;;;;;;;;;;;;;;;12.09;100.00;101159.50;5542606;32;35053;-70
2022/10/30 00:45:34;;;;;;;;;;;;;;;12.05;100.00;101168.81;5556445;32;35278;-71
2022/10/30 00:48:39;;;;;;;;;;;;;;;12.09;100.00;101163.00;5556337;32;34434;-71
2022/10/30 00:51:49;;;;;;;;;;;;;;;12.12;100.00;101162.69;5517666;32;35109;-71
2022/10/30 00:54:56;;;;;;;;;;;;;;;12.20;100.00;101169.84;5556312;32;35088;-71
2022/10/30 00:58:02;;;;;;;;;;;;;;;12.17;100.00;101167.50;5556446;32;34567;-71
2022/10/30 01:01:10;;;;;;;;;;;;;;;12.20;100.00;101160.03;5556057;32;34843;-71
2022/10/30 01:04:17;;;;;;;;;;;;;;;12.09;100.00;101155.03;5556258;32;35244;-71
2022/10/30 01:07:24;;;;;;;;;;;;;;;12.11;100.00;101152.19;5556095;32;34924;-70
2022/10/30 01:10:29;;;;;;;;;;;;;;;12.14;100.00;101152.72;5556231;32;34921;-71
2022/10/30 01:13:37;;;;;;;;;;;;;;;12.14;100.00;101142.09;5556380;32;35022;-70
2022/10/30 01:16:45;;;;;;;;;;;;;;;12.21;100.00;101136.94;5556084;32;35184;-71
2022/10/30 01:19:59;;;;;;;;;;;;;;;12.08;100.00;101139.22;5555868;32;34444;-71
2022/10/30 01:23:13;;;;;;;;;;;;;;;12.15;100.00;101134.94;5556044;32;35201;-71
2022/10/30 01:26:20;;;;;;;;;;;;;;;12.09;100.00;101131.09;5555824;32;35143;-71
2022/10/30 01:29:28;;;;;;;;;;;;;;;11.99;100.00;101127.72;5555693;32;34927;-71
2022/10/30 01:32:35;;;;;;;;;;;;;;;11.98;100.00;101123.38;5555628;32;35208;-70
2022/10/30 01:35:51;;;;;;;;;;;;;;;11.99;100.00;101121.56;5555916;32;35122;-71
2022/10/30 01:39:03;;;;;;;;;;;;;;;12.01;100.00;101123.03;5555683;32;34908;-71
2022/10/30 01:42:28;;;;;;;;;;;;;;;12.00;100.00;101129.38;5555567;32;34480;-71
2022/10/30 01:45:49;;;;;;;;;;;;;;;11.98;100.00;101131.34;5555525;32;35185;-71
2022/10/30 01:48:58;;;;;;;;;;;;;;;11.99;100.00;101129.53;5555171;32;34546;-71
2022/10/30 01:52:10;;;;;;;;;;;;;;;12.06;100.00;101133.22;5538540;32;35191;-70
2022/10/30 01:55:23;;;;;;;;;;;;;;;12.01;100.00;101140.81;5537998;32;35304;-70
2022/10/30 01:58:41;;;;;;;;;;;;;;;12.02;100.00;101137.19;5552014;32;34597;-71
2022/10/30 02:01:48;;;;;;;;;;;;;;;11.90;100.00;101133.97;5551576;32;35199;-70
2022/10/30 02:04:53;;;;;;;;;;;;;;;11.92;100.00;101131.97;5538479;32;34418;-71
2022/10/30 02:08:02;;;;;;;;;;;;;;;11.87;100.00;101136.09;5551641;32;35384;-70
2022/10/30 02:11:12;;;;;;;;;;;;;;;11.80;100.00;101129.75;5552055;32;35101;-71
2022/10/30 02:14:23;;;;;;;;;;;;;;;11.76;100.00;101132.72;5537976;32;34293;-70
2022/10/30 02:17:28;;;;;;;;;;;;;;;11.73;100.00;101125.06;5551594;32;35084;-71
2022/10/30 02:20:34;;;;;;;;;;;;;;;11.81;100.00;101134.94;5551264;32;34556;-70
2022/10/30 02:23:43;;;;;;;;;;;;;;;11.70;100.00;101138.66;5551439;32;34708;-70
2022/10/30 02:26:50;;;;;;;;;;;;;;;11.62;100.00;101138.56;5551422;32;34687;-70
2022/10/30 02:30:00;;;;;;;;;;;;;;;11.56;100.00;101139.22;5551377;32;35169;-71
2022/10/30 02:33:08;;;;;;;;;;;;;;;11.61;100.00;101125.47;5551442;32;34631;-70
2022/10/30 02:36:15;;;;;;;;;;;;;;;11.90;100.00;101122.50;5551375;32;35307;-70
2022/10/30 02:39:23;;;;;;;;;;;;;;;11.82;100.00;101110.00;5537547;32;35315;-71
2022/10/30 02:42:32;;;;;;;;;;;;;;;11.81;100.00;101113.66;5551323;32;35189;-71
2022/10/30 02:45:40;;;;;;;;;;;;;;;11.83;100.00;101113.47;5551227;32;34929;-70
2022/10/30 02:48:49;;;;;;;;;;;;;;;11.79;100.00;101120.12;5538349;32;34385;-70
2022/10/30 02:51:58;;;;;;;;;;;;;;;11.82;100.00;101119.78;5551259;32;35206;-71
2022/10/30 02:55:04;;;;;;;;;;;;;;;11.80;100.00;101122.63;5551141;32;35191;-70
2022/10/30 02:58:11;;;;;;;;;;;;;;;11.75;100.00;101120.44;5551508;32;34465;-70
2022/10/30 03:01:19;;;;;;;;;;;;;;;11.72;100.00;101130.50;5550521;32;34650;-71
2022/10/30 03:04:27;;;;;;;;;;;;;;;11.75;100.00;101124.91;5551104;32;34528;-70
2022/10/30 03:07:33;;;;;;;;;;;;;;;11.68;100.00;101131.81;5551058;32;34888;-71
2022/10/30 03:10:40;;;;;;;;;;;;;;;11.72;100.00;101131.38;5538428;32;34456;-71
2022/10/30 03:13:49;;;;;;;;;;;;;;;11.63;100.00;101128.78;5551123;32;35238;-71
2022/10/30 03:16:56;;;;;;;;;;;;;;;11.65;100.00;101129.47;5551094;32;34763;-70
2022/10/30 03:20:01;;;;;;;;;;;;;;;11.84;100.00;101123.12;5550808;32;34724;-71
2022/10/30 03:23:08;;;;;;;;;;;;;;;11.71;100.00;101127.00;5551027;32;35194;-71
2022/10/30 03:26:14;;;;;;;;;;;;;;;11.60;100.00;101129.09;5538011;32;34851;-70
2022/10/30 03:29:22;;;;;;;;;;;;;;;11.68;100.00;101132.66;5551027;32;35087;-70
2022/10/30 03:32:27;;;;;;;;;;;;;;;11.60;100.00;101129.94;5536763;32;35205;-70
2022/10/30 03:35:36;;;;;;;;;;;;;;;11.56;100.00;101125.09;5550871;32;34425;-70
2022/10/30 03:38:44;;;;;;;;;;;;;;;11.56;100.00;101133.06;5550896;32;34443;-71
2022/10/30 03:41:52;;;;;;;;;;;;;;;11.50;100.00;101120.41;5550808;32;35137;-70
2022/10/30 03:44:58;;;;;;;;;;;;;;;11.53;100.00;101125.37;5550775;32;34593;-70
2022/10/30 03:48:05;;;;;;;;;;;;;;;11.66;100.00;101123.16;5536794;32;34676;-70
2022/10/30 03:51:12;;;;;;;;;;;;;;;11.71;100.00;101113.72;5550775;32;35193;-70
2022/10/30 03:54:23;;;;;;;;;;;;;;;11.58;100.00;101109.81;5536742;32;35293;-70
2022/10/30 03:57:29;;;;;;;;;;;;;;;11.51;100.00;101114.09;5550963;32;34438;-71
2022/10/30 04:00:46;;;;;;;;;;;;;;;11.46;100.00;101116.38;5536580;32;35511;-70
2022/10/30 04:03:57;;;;;;;;;;;;;;;11.42;100.00;101115.03;5550555;32;35078;-70
2022/10/30 04:07:03;;;;;;;;;;;;;;;11.38;100.00;101118.97;5550493;32;34567;-71
2022/10/30 04:10:13;;;;;;;;;;;;;;;11.45;100.00;101120.88;5550448;32;34542;-70
2022/10/30 04:13:26;;;;;;;;;;;;;;;11.52;100.00;101113.91;5535095;32;35379;-70
2022/10/30 04:16:32;;;;;;;;;;;;;;;11.43;100.00;101114.84;5550516;32;34600;-70
2022/10/30 04:19:36;;;;;;;;;;;;;;;11.36;100.00;101108.50;5550370;32;34955;-71
2022/10/30 04:22:45;;;;;;;;;;;;;;;11.38;100.00;101109.19;5550272;32;35163;-70
2022/10/30 04:25:54;;;;;;;;;;;;;;;11.34;100.00;101113.12;5550310;32;35136;-70
2022/10/30 04:29:00;;;;;;;;;;;;;;;11.34;100.00;101107.81;5550171;32;34817;-70
2022/10/30 04:32:07;;;;;;;;;;;;;;;11.40;100.00;101114.34;5550462;32;35123;-70
2022/10/30 04:35:15;;;;;;;;;;;;;;;11.39;100.00;101105.53;5550193;32;35058;-70
2022/10/30 04:38:23;;;;;;;;;;;;;;;11.37;100.00;101115.50;5550118;32;34461;-70
2022/10/30 04:41:30;;;;;;;;;;;;;;;11.36;100.00;101103.19;5536327;32;34621;-71
2022/10/30 04:44:36;;;;;;;;;;;;;;;11.36;100.00;101116.47;5550021;32;34446;-70
2022/10/30 04:47:44;;;;;;;;;;;;;;;11.44;100.00;101115.69;5535894;32;33593;-70
2022/10/30 04:50:51;;;;;;;;;;;;;;;11.39;100.00;101112.66;5550168;32;35189;-70
2022/10/30 04:53:58;;;;;;;;;;;;;;;11.41;100.00;101124.00;5549827;32;34402;-70
2022/10/30 04:57:05;;;;;;;;;;;;;;;11.41;100.00;101121.34;5549822;32;34510;-70
2022/10/30 05:00:13;;;;;;;;;;;;;;;11.41;100.00;101122.16;5549760;32;34927;-70
2022/10/30 05:03:22;;;;;;;;;;;;;;;11.50;100.00;101118.56;5549690;32;34713;-70
2022/10/30 05:06:29;;;;;;;;;;;;;;;11.43;100.00;101112.19;5536208;32;34441;-71
2022/10/30 05:09:35;;;;;;;;;;;;;;;11.44;100.00;101121.84;5549428;32;34720;-70
2022/10/30 05:12:44;;;;;;;;;;;;;;;11.47;100.00;101110.09;5535749;32;35450;-70
2022/10/30 05:15:53;;;;;;;;;;;;;;;11.52;100.00;101126.41;5549446;32;35061;-70
2022/10/30 05:19:00;;;;;;;;;;;;;;;11.44;100.00;101134.28;5549470;32;35248;-70
2022/10/30 05:22:09;;;;;;;;;;;;;;;11.38;100.00;101132.25;5549393;32;34413;-71
2022/10/30 05:25:16;;;;;;;;;;;;;;;11.39;100.00;101137.41;5550668;32;34942;-70
2022/10/30 05:28:23;;;;;;;;;;;;;;;11.40;100.00;101133.78;5537693;32;35130;-70
2022/10/30 05:31:32;;;;;;;;;;;;;;;11.48;100.00;101133.00;5551924;32;34514;-71
2022/10/30 05:34:45;;;;;;;;;;;;;;;11.44;100.00;101134.28;5537812;32;34838;-71
2022/10/30 05:37:54;;;;;;;;;;;;;;;11.49;100.00;101140.81;5552244;32;34497;-71
2022/10/30 05:41:01;;;;;;;;;;;;;;;11.42;100.00;101134.47;5551798;32;35148;-71
2022/10/30 05:44:09;;;;;;;;;;;;;;;11.47;100.00;101134.00;5551849;32;35252;-71
2022/10/30 05:47:16;;;;;;;;;;;;;;;11.48;100.00;101135.66;5537903;32;34836;-71
2022/10/30 05:50:24;;;;;;;;;;;;;;;11.51;100.00;101138.00;5551786;32;35146;-71
2022/10/30 05:53:38;;;;;;;;;;;;;;;11.51;100.00;101144.16;5551859;32;34331;-71
2022/10/30 05:56:47;;;;;;;;;;;;;;;11.59;100.00;101136.25;5551849;32;34821;-71
2022/10/30 05:59:55;;;;;;;;;;;;;;;11.71;100.00;101132.31;5537987;32;34392;-71
2022/10/30 06:03:05;;;;;;;;;;;;;;;11.57;100.00;101148.84;5551931;32;34589;-71
2022/10/30 06:06:10;;;;;;;;;;;;;;;11.61;100.00;101144.91;5537863;32;35455;-71
2022/10/30 06:09:20;;;;;;;;;;;;;;;11.58;100.00;101145.19;5538465;32;35199;-71
2022/10/30 06:12:29;;;;;;;;;;;;;;;11.66;100.00;101136.47;5537648;32;35391;-72
2022/10/30 06:15:37;;;;;;;;;;;;;;;11.74;100.00;101129.41;5537882;32;35174;-71
2022/10/30 06:18:45;;;;;;;;;;;;;;;11.81;100.00;101136.75;5551776;32;35055;-72
2022/10/30 06:21:53;;;;;;;;;;;;;;;11.90;100.00;101135.81;5537518;32;34480;-71
2022/10/30 06:25:00;;;;;;;;;;;;;;;11.84;100.00;101139.91;5551235;32;34804;-71
2022/10/30 06:28:07;;;;;;;;;;;;;;;11.89;100.00;101134.12;5551255;32;34502;-72
2022/10/30 06:31:13;;;;;;;;;;;;;;;11.98;100.00;101139.34;5551391;32;35270;-71
2022/10/30 06:34:19;;;;;;;;;;;;;;;12.08;100.00;101144.53;5538091;32;35147;-71
2022/10/30 06:37:29;;;;;;;;;;;;;;;12.11;100.00;101155.69;5536453;32;33283;-71
2022/10/30 06:40:33;;;;;;;;;;;;;;;12.18;100.00;101154.06;5538132;32;35054;-71
2022/10/30 06:43:44;;;;;;;;;;;;;;;12.32;100.00;101157.09;5524923;32;34555;-71
2022/10/30 06:46:52;;;;;;;;;;;;;;;12.40;100.00;101162.44;5551255;32;34520;-71
2022/10/30 06:50:01;;;;;;;;;;;;;;;12.36;100.00;101169.09;5536962;32;35187;-71
2022/10/30 06:53:09;;;;;;;;;;;;;;;12.26;100.00;101166.56;5551035;32;35105;-71
2022/10/30 06:56:15;;;;;;;;;;;;;;;12.12;100.00;101160.00;5551072;32;34556;-71
2022/10/30 06:59:22;;;;;;;;;;;;;;;12.07;100.00;101167.62;5551346;32;35118;-72
2022/10/30 07:02:29;;;;;;;;;;;;;;;12.10;100.00;101162.00;5551109;32;34521;-71
2022/10/30 07:05:34;;;;;;;;;;;;;;;12.26;100.00;101158.56;5551062;32;34527;-71
2022/10/30 07:08:39;;;;;;;;;;;;;;;12.34;100.00;101158.63;5551098;32;35187;-71
2022/10/30 07:11:47;;;;;;;;;;;;;;;12.20;100.00;101160.03;5537868;32;34366;-71
2022/10/30 07:15:00;;;;;;;;;;;;;;;12.29;100.00;101160.94;5537411;32;34486;-71
2022/10/30 07:18:08;;;;;;;;;;;;;;;12.33;100.00;101156.13;5551334;32;34576;-71
2022/10/30 07:21:13;;;;;;;;;;;;;;;12.34;100.00;101157.78;5550750;32;34889;-71
2022/10/30 07:24:19;;;;;;;;;;;;;;;12.27;100.00;101159.41;5537118;32;34506;-71
2022/10/30 07:27:26;;;;;;;;;;;;;;;12.32;100.00;101155.28;5550719;32;35187;-71
2022/10/30 07:30:32;;;;;;;;;;;;;;;12.31;100.00;101156.28;5550899;32;34507;-71
2022/10/30 07:33:38;;;;;;;;;;;;;;;12.36;100.00;101166.44;5551144;32;34970;-71
2022/10/30 07:36:46;;;;;;;;;;;;;;;12.61;100.00;101162.87;5537865;32;35014;-71
2022/10/30 07:39:54;;;;;;;;;;;;;;;12.58;100.00;101172.03;5550640;32;34617;-71
2022/10/30 07:43:01;;;;;;;;;;;;;;;12.67;100.00;101169.37;5536631;32;34870;-72
2022/10/30 07:46:09;;;;;;;;;;;;;;;12.59;100.00;101172.84;5550856;32;35113;-71
2022/10/30 07:49:17;;;;;;;;;;;;;;;12.62;100.00;101177.84;5550566;32;34948;-71
2022/10/30 07:52:30;;;;;;;;;;;;;;;12.68;100.00;101176.37;5550667;32;34506;-71
2022/10/30 07:55:38;;;;;;;;;;;;;;;12.69;100.00;101178.03;5550309;32;34557;-71
2022/10/30 07:58:46;;;;;;;;;;;;;;;12.38;100.00;101172.44;5550173;32;34812;-71
2022/10/30 08:01:52;;;;;;;;;;;;;;;12.54;100.00;101183.13;5550144;32;35118;-71
2022/10/30 08:04:58;;;;;;;;;;;;;;;12.74;100.00;101175.72;5524283;32;34290;-71
2022/10/30 08:08:04;;;;;;;;;;;;;;;12.93;100.00;101181.59;5550264;32;34540;-71
2022/10/30 08:11:10;;;;;;;;;;;;;;;12.84;100.00;101179.06;5550282;32;35118;-71
2022/10/30 08:14:16;;;;;;;;;;;;;;;12.95;100.00;101179.59;5536443;32;34589;-71
2022/10/30 08:17:23;;;;;;;;;;;;;;;12.69;100.00;101165.53;5550400;32;34434;-71
2022/10/30 08:20:27;;;;;;;;;;;;;;;12.84;100.00;101171.91;5549982;32;35084;-71
2022/10/30 08:23:34;;;;;;;;;;;;;;;12.91;100.00;101172.09;5536335;32;34533;-71
2022/10/30 08:26:45;;;;;;;;;;;;;;;12.90;100.00;101181.09;5550096;32;35012;-71
2022/10/30 08:29:54;;;;;;;;;;;;;;;12.95;100.00;101181.44;5536076;32;32683;-71
2022/10/30 08:33:02;;;;;;;;;;;;;;;12.84;100.00;101177.25;5550261;32;34929;-71
2022/10/30 08:36:12;;;;;;;;;;;;;;;13.06;100.00;101181.12;5549902;32;34578;-71
2022/10/30 08:39:18;;;;;;;;;;;;;;;13.16;100.00;101179.19;5549964;32;34543;-71
2022/10/30 08:42:25;;;;;;;;;;;;;;;13.22;100.00;101186.47;5549662;32;35144;-71
2022/10/30 08:45:33;;;;;;;;;;;;;;;13.02;100.00;101185.13;5549377;32;34570;-72
2022/10/30 08:48:40;;;;;;;;;;;;;;;12.90;100.00;101178.41;5549739;32;35000;-71
2022/10/30 08:51:45;;;;;;;;;;;;;;;13.15;100.00;101177.50;5535811;32;34648;-71
2022/10/30 08:54:53;;;;;;;;;;;;;;;13.31;100.00;101172.16;5549318;32;34843;-71
2022/10/30 08:58:01;;;;;;;;;;;;;;;13.36;100.00;101169.03;5549369;32;35099;-71
2022/10/30 09:01:07;;;;;;;;;;;;;;;13.40;100.00;101167.69;5536840;32;35325;-71
2022/10/30 09:04:16;;;;;;;;;;;;;;;13.05;100.00;101180.28;5551784;32;35248;-71
2022/10/30 09:07:23;;;;;;;;;;;;;;;13.24;100.00;101178.34;5552109;32;35164;-71
2022/10/30 09:10:31;;;;;;;;;;;;;;;13.33;100.00;101180.00;5552138;32;34897;-71
2022/10/30 09:13:38;;;;;;;;;;;;;;;13.48;100.00;101170.34;5538358;32;34598;-72
2022/10/30 09:16:46;;;;;;;;;;;;;;;13.41;100.00;101166.66;5537901;32;34470;-71
2022/10/30 09:19:49;;;;;;;;;;;;;;;13.40;100.00;101173.84;5551256;32;35148;-72
2022/10/30 09:22:55;;;;;;;;;;;;;;;13.79;100.00;101181.16;5551557;32;34316;-70
2022/10/30 09:26:02;;;;;;;;;;;;;;;13.83;100.00;101179.81;5551795;32;34564;-70
2022/10/30 09:29:09;;;;;;;;;;;;;;;13.84;100.00;101176.16;5551538;32;34452;-70
2022/10/30 09:32:15;;;;;;;;;;;;;;;13.88;100.00;101186.31;5551627;32;34756;-71
2022/10/30 09:35:21;;;;;;;;;;;;;;;14.11;100.00;101182.91;5551676;32;35069;-71
2022/10/30 09:38:28;;;;;;;;;;;;;;;14.03;100.00;101175.78;5551741;32;34535;-70
2022/10/30 09:41:58;;;;;;;;;;;;;;;13.92;100.00;101176.13;5551800;32;34602;-71
2022/10/30 09:45:07;;;;;;;;;;;;;;;14.06;100.00;101179.91;5551439;32;34926;-71
2022/10/30 09:48:51;;;;;;;;;;;;;;;14.61;100.00;101174.59;5540368;32;34459;-71
2022/10/30 09:52:13;;;;;;;;;;;;;;;14.94;100.00;101172.56;5551624;32;35240;-70
2022/10/30 09:55:20;;;;;;;;;;;;;;;15.36;100.00;101166.72;5551369;32;35098;-70
2022/10/30 09:58:26;;;;;;;;;;;;;;;15.60;100.00;101166.53;5537515;32;32660;-70
2022/10/30 10:01:40;;;;;;;;;;;;;;;15.75;100.00;101164.75;5537783;32;33817;-71
2022/10/30 10:04:49;;;;;;;;;;;;;;;15.55;100.00;101160.91;5537445;32;34441;-71
2022/10/30 10:07:58;;;;;;;;;;;;;;;15.85;100.00;101157.28;5551408;32;34417;-71
2022/10/30 10:11:13;;;;;;;;;;;;;;;15.79;99.96;101152.66;5537854;32;34498;-71
2022/10/30 10:14:21;;;;;;;;;;;;;;;15.83;100.00;101156.63;5551173;32;34563;-70
2022/10/30 10:17:36;;;;;;;;;;;;;;;15.62;100.00;101149.31;5551338;32;35137;-71
2022/10/30 10:20:42;;;;;;;;;;;;;;;15.93;99.11;101148.31;5550850;32;35103;-71
2022/10/30 10:23:49;;;;;;;;;;;;;;;16.21;98.38;101149.37;5550785;32;34534;-71
2022/10/30 10:27:00;;;;;;;;;;;;;;;16.39;96.44;101141.75;5550911;32;34992;-71
2022/10/30 10:30:16;;;;;;;;;;;;;;;15.30;100.00;101146.88;5537267;32;35260;-71
2022/10/30 10:33:34;;;;;;;;;;;;;;;14.92;100.00;101143.34;5551119;32;35173;-71
2022/10/30 10:36:49;;;;;;;;;;;;;;;15.70;100.00;101137.69;5551179;32;34546;-71
2022/10/30 10:39:58;;;;;;;;;;;;;;;15.91;99.35;101137.00;5536933;32;34662;-70
2022/10/30 10:43:08;;;;;;;;;;;;;;;15.57;100.00;101130.31;5537493;32;34944;-70
2022/10/30 10:46:31;;;;;;;;;;;;;;;15.72;100.00;101133.00;5550972;32;34668;-71
2022/10/30 10:49:40;;;;;;;;;;;;;;;16.10;99.27;101133.75;5551221;32;35108;-71
2022/10/30 10:52:49;;;;;;;;;;;;;;;16.63;95.22;101129.09;5537381;32;35489;-71
2022/10/30 10:55:58;;;;;;;;;;;;;;;16.42;94.89;101129.84;5551077;32;35157;-71
2022/10/30 10:59:07;;;;;;;;;;;;;;;16.57;94.38;101124.44;5551030;32;34692;-71
2022/10/30 11:02:29;;;;;;;;;;;;;;;16.38;94.88;101123.19;5551104;32;34529;-71
2022/10/30 11:05:41;;;;;;;;;;;;;;;16.53;94.18;101105.25;5551040;32;35256;-70
2022/10/30 11:08:51;;;;;;;;;;;;;;;16.41;94.57;101117.47;5550851;32;34602;-70
2022/10/30 11:11:57;;;;;;;;;;;;;;;16.34;97.67;101106.69;5536748;32;34741;-71
2022/10/30 11:15:08;;;;;;;;;;;;;;;16.83;93.49;101103.34;5550866;32;34495;-70
2022/10/30 11:18:13;;;;;;;;;;;;;;;16.32;96.41;101102.50;5550946;32;34576;-71
2022/10/30 11:21:20;;;;;;;;;;;;;;;16.98;92.02;101106.78;5537602;32;35189;-70
2022/10/30 11:24:26;;;;;;;;;;;;;;;17.07;90.83;101102.97;5536762;32;34826;-70
2022/10/30 11:27:33;;;;;;;;;;;;;;;16.44;94.56;101106.38;5536954;32;35339;-71
2022/10/30 11:30:39;;;;;;;;;;;;;;;17.08;91.79;101109.97;5551237;32;35158;-71
2022/10/30 11:33:45;;;;;;;;;;;;;;;16.34;97.66;101108.53;5550874;32;34651;-71
2022/10/30 11:36:51;;;;;;;;;;;;;;;15.72;99.80;101106.25;5550619;32;34685;-71
2022/10/30 11:40:04;;;;;;;;;;;;;;;16.12;98.79;101098.78;5550603;32;34618;-70
2022/10/30 11:43:13;;;;;;;;;;;;;;;16.04;98.64;101099.69;5550681;32;35179;-70
2022/10/30 11:46:21;;;;;;;;;;;;;;;16.48;95.87;101091.59;5550635;32;34801;-70
2022/10/30 11:49:36;;;;;;;;;;;;;;;15.75;99.71;101089.81;5550569;32;34995;-70
2022/10/30 11:52:43;;;;;;;;;;;;;;;16.30;97.12;101081.31;5550468;32;34362;-72
2022/10/30 11:55:50;;;;;;;;;;;;;;;16.59;94.38;101087.63;5550731;32;34526;-71
2022/10/30 11:59:00;;;;;;;;;;;;;;;16.79;93.17;101081.47;5536473;32;35509;-71
2022/10/30 12:02:19;;;;;;;;;;;;;;;16.86;92.61;101076.97;5550931;32;34532;-71
2022/10/30 12:05:26;;;;;;;;;;;;;;;16.87;92.01;101078.66;5536459;32;35629;-70
2022/10/30 12:08:33;;;;;;;;;;;;;;;16.75;92.92;101077.47;5536340;32;35048;-70
2022/10/30 12:11:43;;;;;;;;;;;;;;;16.50;95.85;101074.34;5550542;32;35010;-70
2022/10/30 12:14:49;;;;;;;;;;;;;;;16.21;96.46;101077.06;5550194;32;34571;-71
2022/10/30 12:17:59;;;;;;;;;;;;;;;16.27;97.99;101070.13;5510919;32;433538;-71
2022/10/30 12:21:03;;;;;;;;;;;;;;;16.73;95.66;101084.06;5550158;32;34995;-71
2022/10/30 12:24:15;;;;;;;;;;;;;;;16.84;93.70;101080.87;5550113;32;34927;-70
2022/10/30 12:27:19;;;;;;;;;;;;;;;15.87;98.72;101079.50;5550543;32;34652;-70
2022/10/30 12:30:30;;;;;;;;;;;;;;;16.02;100.00;101059.72;5536478;32;35424;-70
2022/10/30 12:33:49;;;;;;;;;;;;;;;16.15;99.18;101048.38;5548869;32;34462;-70
2022/10/30 12:37:02;;;;;;;;;;;;;;;16.22;98.80;101053.78;5537188;32;35226;-70
2022/10/30 12:40:11;;;;;;;;;;;;;;;16.74;95.50;101075.00;5536876;32;35174;-70
2022/10/30 12:43:22;;;;;;;;;;;;;;;16.63;95.83;101073.66;5549926;32;34012;-70
2022/10/30 12:46:29;;;;;;;;;;;;;;;16.67;95.92;101082.13;5549456;32;34532;-70
2022/10/30 12:49:35;;;;;;;;;;;;;;;16.64;95.88;101080.69;5549737;32;34564;-70
2022/10/30 12:52:46;;;;;;;;;;;;;;;16.49;96.51;101066.47;5549631;32;34559;-70
2022/10/30 12:55:58;;;;;;;;;;;;;;;16.49;96.57;101072.66;5549765;32;35229;-70
2022/10/30 12:59:11;;;;;;;;;;;;;;;16.52;96.19;101072.28;5549658;32;34835;-70
2022/10/30 13:02:29;;;;;;;;;;;;;;;16.28;98.59;101075.28;5523161;32;35393;-70
2022/10/30 13:05:42;;;;;;;;;;;;;;;16.42;97.96;101065.56;5523056;32;34679;-70
2022/10/30 13:08:52;;;;;;;;;;;;;;;16.18;97.98;101057.84;5549613;32;34540;-70
2022/10/30 13:12:09;;;;;;;;;;;;;;;16.14;100.00;101057.41;5549433;32;35369;-70
2022/10/30 13:15:16;;;;;;;;;;;;;;;15.76;100.00;101064.75;5535382;32;35477;-70
2022/10/30 13:18:28;;;;;;;;;;;;;;;15.96;100.00;101068.53;5549112;32;35166;-70
2022/10/30 13:21:33;;;;;;;;;;;;;;;16.40;98.31;101071.13;5549128;32;34490;-71
2022/10/30 13:24:38;;;;;;;;;;;;;;;16.44;97.76;101060.84;5548980;32;34809;-71
2022/10/30 13:27:46;;;;;;;;;;;;;;;16.34;98.36;101055.81;5549131;32;35142;-71
2022/10/30 13:31:11;;;;;;;;;;;;;;;15.76;100.00;101061.22;5549114;32;34490;-70
2022/10/30 13:34:24;;;;;;;;;;;;;;;15.64;100.00;101066.19;5548865;32;35071;-71
2022/10/30 13:37:30;;;;;;;;;;;;;;;15.90;100.00;101061.22;5535622;32;35041;-70
2022/10/30 13:40:41;;;;;;;;;;;;;;;16.04;100.00;101070.25;5548636;32;34983;-70
2022/10/30 13:43:45;;;;;;;;;;;;;;;16.11;100.00;101073.03;5548517;32;34868;-71
2022/10/30 13:47:07;;;;;;;;;;;;;;;15.90;100.00;101066.59;5536703;32;33152;-70
2022/10/30 13:50:21;;;;;;;;;;;;;;;15.97;100.00;101061.31;5551768;32;34438;-70
2022/10/30 13:53:29;;;;;;;;;;;;;;;15.78;100.00;101060.03;5551785;32;34708;-70
2022/10/30 13:56:34;;;;;;;;;;;;;;;15.98;100.00;101062.97;5537917;32;35069;-70
2022/10/30 13:59:51;;;;;;;;;;;;;;;15.39;100.00;101060.28;5551463;32;34437;-71
2022/10/30 14:03:03;;;;;;;;;;;;;;;15.20;100.00;101056.25;5538256;32;34836;-71
2022/10/30 14:06:30;;;;;;;;;;;;;;;15.32;100.00;101045.97;5537808;32;34506;-70
2022/10/30 14:09:49;;;;;;;;;;;;;;;15.39;100.00;101054.94;5537848;32;34475;-70
2022/10/30 14:12:55;;;;;;;;;;;;;;;15.41;100.00;101057.41;5537867;32;34308;-70
2022/10/30 14:16:01;;;;;;;;;;;;;;;15.42;100.00;101056.38;5537709;32;35155;-70
2022/10/30 14:19:08;;;;;;;;;;;;;;;15.33;100.00;101066.34;5538246;32;34514;-70
2022/10/30 14:22:22;;;;;;;;;;;;;;;15.30;100.00;101071.22;5538441;32;35059;-70
2022/10/30 14:25:29;;;;;;;;;;;;;;;15.26;100.00;101062.72;5551332;32;34602;-70
2022/10/30 14:28:34;;;;;;;;;;;;;;;15.03;100.00;101069.94;5537604;32;35094;-70
2022/10/30 14:31:41;;;;;;;;;;;;;;;15.16;100.00;101070.16;5537392;32;35604;-71
2022/10/30 14:34:51;;;;;;;;;;;;;;;15.16;100.00;101068.31;5537483;32;35184;-71
2022/10/30 14:38:14;;;;;;;;;;;;;;;15.11;100.00;101070.69;5551094;32;35122;-70
2022/10/30 14:41:27;;;;;;;;;;;;;;;14.75;100.00;101057.16;5551205;32;34516;-70
2022/10/30 14:44:46;;;;;;;;;;;;;;;14.86;100.00;101055.91;5550975;32;34994;-70
2022/10/30 14:47:52;;;;;;;;;;;;;;;15.10;100.00;101052.19;5537238;32;34555;-70
2022/10/30 14:51:11;;;;;;;;;;;;;;;14.87;100.00;101044.19;5537336;32;34453;-70
2022/10/30 14:54:17;;;;;;;;;;;;;;;14.59;100.00;101051.09;5537205;32;35369;-70
2022/10/30 14:57:42;;;;;;;;;;;;;;;14.63;100.00;101047.03;5536201;32;34888;-71
2022/10/30 15:00:48;;;;;;;;;;;;;;;14.59;100.00;101049.25;5551317;32;35098;-71
2022/10/30 15:04:03;;;;;;;;;;;;;;;14.56;100.00;101038.94;5550945;32;34973;-70
2022/10/30 15:07:28;;;;;;;;;;;;;;;14.29;100.00;101039.38;5550849;32;34691;-71
2022/10/30 15:10:50;;;;;;;;;;;;;;;14.33;100.00;101033.53;5550846;32;35125;-70
2022/10/30 15:13:58;;;;;;;;;;;;;;;14.32;100.00;101034.56;5551028;32;35107;-70
2022/10/30 15:17:04;;;;;;;;;;;;;;;14.45;100.00;101041.16;5537073;32;35556;-70
2022/10/30 15:20:17;;;;;;;;;;;;;;;14.11;100.00;101037.00;5536766;32;33366;-70
2022/10/30 15:23:23;;;;;;;;;;;;;;;13.91;100.00;101036.59;5536964;32;34558;-71
2022/10/30 15:26:35;;;;;;;;;;;;;;;13.78;100.00;101032.81;5550753;32;34644;-69
2022/10/30 15:29:45;;;;;;;;;;;;;;;13.74;100.00;101034.16;5550754;32;35086;-70
2022/10/30 15:32:51;;;;;;;;;;;;;;;13.61;100.00;101040.03;5537579;32;35086;-70
2022/10/30 15:36:04;;;;;;;;;;;;;;;13.54;100.00;101048.88;5536945;32;34666;-70
2022/10/30 15:39:17;;;;;;;;;;;;;;;13.41;100.00;101038.72;5551012;32;34633;-70
2022/10/30 15:42:22;;;;;;;;;;;;;;;13.35;100.00;101042.94;5550732;32;34516;-70
2022/10/30 15:45:35;;;;;;;;;;;;;;;13.41;100.00;101044.06;5549915;32;34552;-70
2022/10/30 15:48:44;;;;;;;;;;;;;;;13.32;100.00;101047.75;5550374;32;34859;-70
2022/10/30 15:51:50;;;;;;;;;;;;;;;13.31;100.00;101041.59;5536070;32;35115;-70
2022/10/30 15:54:57;;;;;;;;;;;;;;;13.37;100.00;101050.75;5550661;32;34878;-71
2022/10/30 15:58:03;;;;;;;;;;;;;;;13.35;100.00;101050.94;5536548;32;35763;-71
2022/10/30 16:01:23;;;;;;;;;;;;;;;13.35;100.00;101042.94;5536740;32;35288;-71